Roper, Georgia
Current Conditions -  °F | °C
As of 3:15 AM on Thursday 27 Nov 2014 (Local Time) from KAZE Reporting Station
Clear Clear  
Wind Chill: 44°   Ceiling: Unl
Heat Index: 48°   Visibility: 10mi
Dew Point: 39°   Wind: 7mph
Humidity: 72%   Direction: 230°SW
Pressure: 30.14"   Gusts: NA
Location:  31.8468°N, 82.5686°W
Report Text: KAZE 270815Z AUTO 23006KT 10SM CLR 09/04 A3014 RMK AO2 T00870040
Loading
Personal Weather Stations






























Interactive Weather Map New forecast layout! Learn more

10-Day Weather Forecast

Advertisements
Track Severe Weather on mobile